createdAt,value
2022-08-07T00:04:01.026Z,66.85
2022-08-07T00:09:16.930Z,67.53
2022-08-07T00:14:31.658Z,62.87
2022-08-07T00:20:02.539Z,58.70
2022-08-07T00:25:00.573Z,57.99
2022-08-07T00:30:21.721Z,60.39
2022-08-07T00:35:31.757Z,61.97
2022-08-07T00:40:40.834Z,69.52
2022-08-07T00:45:46.598Z,69.04
2022-08-07T00:50:51.750Z,64.00
2022-08-07T00:56:02.185Z,60.94
2022-08-07T01:01:08.478Z,56.78
2022-08-07T01:06:13.849Z,58.14
2022-08-07T01:12:04.580Z,59.36
2022-08-07T01:16:49.569Z,65.54
2022-08-07T01:21:55.944Z,68.11
2022-08-07T01:27:02.293Z,66.25
2022-08-07T01:32:12.537Z,65.21
2022-08-07T01:37:19.070Z,64.25
2022-08-07T01:42:39.848Z,62.20
2022-08-07T01:48:18.893Z,59.82
2022-08-07T01:53:21.697Z,56.74
2022-08-07T01:58:49.110Z,58.72
2022-08-07T02:04:28.463Z,59.92
2022-08-07T02:09:52.745Z,67.33
2022-08-07T02:15:01.101Z,68.11
2022-08-07T02:20:17.197Z,65.60
2022-08-07T02:26:10.429Z,63.63
2022-08-07T02:30:52.820Z,62.97
2022-08-07T02:36:29.456Z,61.39
2022-08-07T02:41:25.654Z,60.89
2022-08-07T02:46:46.702Z,60.95
2022-08-07T02:52:02.009Z,60.36
2022-08-07T02:57:15.266Z,60.21
2022-08-07T03:02:20.825Z,57.51
2022-08-07T03:07:58.981Z,57.76
2022-08-07T03:12:53.488Z,60.11
2022-08-07T03:18:00.328Z,66.29
2022-08-07T03:23:05.858Z,67.61
2022-08-07T03:28:37.996Z,66.65
2022-08-07T03:33:47.374Z,64.07
2022-08-07T03:38:56.428Z,61.78
2022-08-07T03:44:02.453Z,60.77
2022-08-07T03:49:10.144Z,59.80
2022-08-07T03:54:36.461Z,57.18
2022-08-07T03:59:46.579Z,57.66
2022-08-07T04:05:12.869Z,60.61
2022-08-07T04:10:19.463Z,65.66
2022-08-07T04:15:24.095Z,65.53
2022-08-07T04:20:29.071Z,64.21
2022-08-07T04:25:40.986Z,61.55
2022-08-07T04:30:56.791Z,59.60
2022-08-07T04:36:02.180Z,60.44
2022-08-07T04:41:18.226Z,65.64
2022-08-07T04:46:35.868Z,63.28
2022-08-07T04:52:03.780Z,61.41
2022-08-07T04:58:11.707Z,60.62
2022-08-07T05:04:06.724Z,58.41
2022-08-07T05:09:02.344Z,63.48
2022-08-07T05:14:55.529Z,64.62
2022-08-07T05:20:09.455Z,62.45
2022-08-07T05:25:25.637Z,61.65
2022-08-07T05:30:43.927Z,57.74
2022-08-07T05:35:55.134Z,61.11
2022-08-07T05:41:01.917Z,63.94
2022-08-07T05:46:20.345Z,62.06
2022-08-07T05:51:31.421Z,58.22
2022-08-07T05:56:40.791Z,59.58
2022-08-07T06:01:47.137Z,62.81
2022-08-07T06:06:56.701Z,62.65
2022-08-07T06:12:09.198Z,58.37
2022-08-07T06:17:16.879Z,59.13
2022-08-07T06:22:27.130Z,62.34
2022-08-07T06:27:59.657Z,58.97
2022-08-07T06:32:57.195Z,59.18
2022-08-07T06:38:02.098Z,61.45
2022-08-07T06:43:21.669Z,62.21
2022-08-07T06:48:26.722Z,59.00
2022-08-07T06:55:27.153Z,59.52
2022-08-07T07:00:11.415Z,60.85
2022-08-07T07:04:32.923Z,61.86
2022-08-07T07:09:38.894Z,61.96
2022-08-07T07:15:08.578Z,62.33
2022-08-07T07:20:58.219Z,58.69
2022-08-07T07:26:35.417Z,57.58
2022-08-07T07:31:44.490Z,58.19
2022-08-07T07:36:54.233Z,58.61
2022-08-07T07:42:12.969Z,58.61
2022-08-07T07:47:23.900Z,59.07
2022-08-07T07:52:33.402Z,58.48
2022-08-07T07:57:52.281Z,57.66
2022-08-07T08:03:16.423Z,56.97
2022-08-07T08:08:34.372Z,56.18
2022-08-07T08:13:53.340Z,55.76
2022-08-07T08:19:17.260Z,54.73
2022-08-07T08:24:57.165Z,53.19
2022-08-07T08:30:17.374Z,53.11
2022-08-07T08:35:28.804Z,52.82
2022-08-07T08:40:54.595Z,52.90
2022-08-07T08:46:22.083Z,52.66
2022-08-07T08:52:12.580Z,51.75
2022-08-07T08:57:38.941Z,50.41
2022-08-07T09:03:48.031Z,50.41
2022-08-07T09:09:13.388Z,49.49
2022-08-07T09:14:59.994Z,48.48
2022-08-07T09:21:13.824Z,46.69
2022-08-07T09:27:11.988Z,45.10
2022-08-07T09:32:26.695Z,45.76
2022-08-07T09:38:10.400Z,44.99
2022-08-07T09:44:03.565Z,44.73
2022-08-07T09:50:02.459Z,43.40
2022-08-07T09:55:28.923Z,42.94
2022-08-07T10:01:51.246Z,43.89
2022-08-07T10:07:24.168Z,43.66
2022-08-07T10:13:05.870Z,42.53
2022-08-07T10:18:39.995Z,42.37
2022-08-07T10:24:05.311Z,42.96
2022-08-07T10:29:51.731Z,43.12
2022-08-07T10:35:16.617Z,42.13
2022-08-07T10:40:53.213Z,41.51
2022-08-07T10:46:26.616Z,40.69
2022-08-07T10:52:13.497Z,39.89
2022-08-07T10:58:17.629Z,39.88
2022-08-07T11:04:05.425Z,39.96
2022-08-07T11:10:09.345Z,40.32
2022-08-07T11:15:01.229Z,40.92
2022-08-07T11:20:20.181Z,41.22
2022-08-07T11:25:50.015Z,40.71
2022-08-07T11:31:18.490Z,38.85
2022-08-07T11:36:31.240Z,37.14
2022-08-07T11:42:03.351Z,38.19
2022-08-07T11:47:39.099Z,39.08
2022-08-07T11:53:26.073Z,38.99
2022-08-07T11:58:50.795Z,38.82
2022-08-07T12:04:18.038Z,37.89
2022-08-07T12:10:02.156Z,38.25
2022-08-07T12:15:46.714Z,38.97
2022-08-07T12:20:57.012Z,40.76
2022-08-07T12:26:29.054Z,41.54
2022-08-07T12:32:03.753Z,42.55
2022-08-07T12:37:16.909Z,43.18
2022-08-07T12:42:32.069Z,43.11
2022-08-07T12:48:05.048Z,43.33
2022-08-07T12:54:02.794Z,43.85
2022-08-07T12:59:37.084Z,44.49
2022-08-07T13:06:04.610Z,44.60
2022-08-07T13:11:17.902Z,44.92
2022-08-07T13:16:46.871Z,45.04
2022-08-07T13:22:35.327Z,44.93
2022-08-07T13:28:12.864Z,45.15
2022-08-07T13:34:32.661Z,44.62
2022-08-07T13:40:34.846Z,44.39
2022-08-07T13:46:20.838Z,43.51
2022-08-07T13:51:00.119Z,41.49
2022-08-07T13:56:07.465Z,41.04
2022-08-07T14:01:21.927Z,41.48
2022-08-07T14:06:35.148Z,41.88
2022-08-07T14:11:53.281Z,42.08
2022-08-07T14:17:32.052Z,42.27
2022-08-07T14:22:35.858Z,42.51
2022-08-07T14:28:21.087Z,42.41
2022-08-07T14:33:23.407Z,42.64
2022-08-07T14:38:39.306Z,43.23
2022-08-07T14:44:15.671Z,43.80
2022-08-07T14:49:57.187Z,44.20
2022-08-07T14:55:17.437Z,44.40
2022-08-07T15:00:48.809Z,44.14
2022-08-07T15:06:09.050Z,43.79
2022-08-07T15:12:08.231Z,43.96
2022-08-07T15:17:20.338Z,44.01
2022-08-07T15:22:51.602Z,44.47
2022-08-07T15:28:33.093Z,44.77
2022-08-07T15:33:44.566Z,45.25
2022-08-07T15:44:32.574Z,38.06
2022-08-07T15:56:02.125Z,34.49
2022-08-07T16:01:03.063Z,34.22
2022-08-07T16:06:10.023Z,35.67
2022-08-07T16:11:40.142Z,37.28
2022-08-07T16:18:02.313Z,36.73
2022-08-07T16:23:13.546Z,34.24
2022-08-07T16:30:08.755Z,33.08
2022-08-07T16:34:39.282Z,34.77
2022-08-07T16:40:37.232Z,36.48
2022-08-07T16:47:13.042Z,38.32
2022-08-07T16:52:51.513Z,38.33
2022-08-07T16:58:20.886Z,36.87
2022-08-07T17:04:00.370Z,36.56
2022-08-07T17:10:05.231Z,36.17
2022-08-07T17:15:04.599Z,36.06
2022-08-07T17:20:40.541Z,36.44
2022-08-07T17:26:24.249Z,38.02
2022-08-07T17:32:02.331Z,39.76
2022-08-07T17:38:11.364Z,41.09
2022-08-07T17:44:03.256Z,42.55
2022-08-07T17:50:04.052Z,44.00
2022-08-07T17:55:55.757Z,45.12
2022-08-07T18:01:36.765Z,46.05
2022-08-07T18:07:20.747Z,46.84
2022-08-07T18:13:16.403Z,48.23
2022-08-07T18:21:03.958Z,48.44
2022-08-07T18:25:23.885Z,49.44
2022-08-07T18:31:07.535Z,50.33
2022-08-07T18:36:41.093Z,51.20
2022-08-07T18:42:45.909Z,51.51
2022-08-07T18:50:31.880Z,51.89
2022-08-07T18:55:40.922Z,52.62
2022-08-07T19:02:18.107Z,53.66
2022-08-07T19:07:36.086Z,53.76
2022-08-07T19:13:44.379Z,54.49
2022-08-07T19:19:31.831Z,55.14
2022-08-07T19:24:52.197Z,56.24
2022-08-07T19:31:00.765Z,56.45
2022-08-07T19:35:33.428Z,56.60
2022-08-07T19:40:49.375Z,57.29
2022-08-07T19:46:07.575Z,57.43
2022-08-07T19:51:50.729Z,58.26
2022-08-07T19:57:51.608Z,58.46
2022-08-07T20:02:52.300Z,58.39
2022-08-07T20:08:15.455Z,58.87
2022-08-07T20:13:56.734Z,59.19
2022-08-07T20:19:10.521Z,59.75
2022-08-07T20:24:28.909Z,60.46
2022-08-07T20:29:58.400Z,60.82
2022-08-07T20:35:16.075Z,60.77
2022-08-07T20:40:31.421Z,61.12
2022-08-07T20:46:27.696Z,61.46
2022-08-07T20:51:09.374Z,61.49
2022-08-07T20:56:20.207Z,61.74
2022-08-07T21:01:45.829Z,65.73
2022-08-07T21:07:03.995Z,66.00
2022-08-07T21:12:15.081Z,55.45
2022-08-07T21:18:03.984Z,55.46
2022-08-07T21:22:55.052Z,57.02
2022-08-07T21:28:49.324Z,58.67
2022-08-07T21:34:08.851Z,59.41
2022-08-07T21:39:47.300Z,60.01
2022-08-07T21:46:08.776Z,60.51
2022-08-07T21:50:54.487Z,65.45
2022-08-07T21:56:35.862Z,63.78
2022-08-07T22:02:11.050Z,54.82
2022-08-07T22:07:35.736Z,55.06
2022-08-07T22:13:03.829Z,56.15
2022-08-07T22:18:26.314Z,57.13
2022-08-07T22:24:09.855Z,58.36
2022-08-07T22:29:48.136Z,59.30
2022-08-07T22:35:00.738Z,60.21
2022-08-07T22:40:21.511Z,61.41
2022-08-07T22:46:21.185Z,69.33
2022-08-07T22:51:43.659Z,64.22
2022-08-07T22:57:33.548Z,56.85
2022-08-07T23:03:58.919Z,57.10
2022-08-07T23:10:03.462Z,59.34
2022-08-07T23:16:05.401Z,60.06
2022-08-07T23:21:16.262Z,61.55
2022-08-07T23:26:26.671Z,69.74
2022-08-07T23:34:20.332Z,63.03
2022-08-07T23:37:32.041Z,55.73
2022-08-07T23:43:16.974Z,57.49
2022-08-07T23:49:05.460Z,57.46
2022-08-07T23:54:52.118Z,59.61
